Time;durP1;ratioP1;P1;durP2;ratioP2;P2;SDS_P1;SDS_P2;PMS_P1;PMS_P2;Temp;Humidity;BMP_temperature;BMP_pressure;BME280_temperature;BME280_humidity;BME280_pressure;Samples;Min_cycle;Max_cycle;Signal;HPM_P1;HPM_P2
2022/01/16 00:01:44;;;;;;;13.10;10.37;;;;;;;3.94;55.51;100525.16;6307823;22;19996;-77
2022/01/16 00:04:11;;;;;;;14.83;11.07;;;;;;;3.81;55.47;100498.25;6306370;22;19995;-77
2022/01/16 00:06:39;;;;;;;11.30;8.18;;;;;;;3.48;55.72;100433.59;6307497;22;20026;-77
2022/01/16 00:09:05;;;;;;;16.00;11.80;;;;;;;3.49;55.58;100448.31;6307438;22;20400;-77
2022/01/16 00:11:31;;;;;;;15.00;11.97;;;;;;;3.96;55.71;100525.03;6307419;22;19997;-77
2022/01/16 00:13:56;;;;;;;20.30;13.43;;;;;;;3.89;55.68;100524.66;6307628;22;20400;-77
2022/01/16 00:16:23;;;;;;;19.07;13.87;;;;;;;3.54;55.79;100485.38;6307313;22;20083;-77
2022/01/16 00:18:54;;;;;;;17.90;13.50;;;;;;;3.38;55.99;100463.94;6307527;22;20444;-77
2022/01/16 00:21:23;;;;;;;20.13;13.93;;;;;;;3.83;55.70;100554.66;6307266;22;19999;-77
2022/01/16 00:23:49;;;;;;;15.80;12.33;;;;;;;3.84;56.06;100558.09;6307403;22;20428;-77
2022/01/16 00:26:16;;;;;;;19.50;13.70;;;;;;;3.53;56.04;100514.22;6279580;22;20022;-78
2022/01/16 00:28:41;;;;;;;19.27;14.60;;;;;;;3.71;56.02;100565.97;6307175;22;20003;-77
2022/01/16 00:31:07;;;;;;;20.10;13.47;;;;;;;3.84;55.88;100612.97;6279585;22;20528;-77
2022/01/16 00:33:32;;;;;;;17.90;13.60;;;;;;;3.80;55.87;100663.75;6307284;22;20502;-77
2022/01/16 00:35:58;;;;;;;19.67;12.67;;;;;;;3.36;55.71;100617.19;6307012;22;19999;-77
2022/01/16 00:38:23;;;;;;;19.53;13.93;;;;;;;3.64;55.64;100637.84;6307143;22;20010;-77
2022/01/16 00:40:49;;;;;;;17.77;12.20;;;;;;;3.32;55.79;100533.06;6306729;22;20010;-77
2022/01/16 00:43:15;;;;;;;15.87;12.20;;;;;;;3.64;55.68;100517.72;6279593;22;20007;-77
2022/01/16 00:45:41;;;;;;;17.33;12.60;;;;;;;3.76;55.23;100446.34;6306954;22;20026;-78
2022/01/16 00:48:07;;;;;;;18.87;12.83;;;;;;;3.83;55.32;100405.78;6306976;22;19995;-77
2022/01/16 00:50:34;;;;;;;19.50;14.90;;;;;;;3.80;55.58;100411.22;6307116;22;20007;-77
2022/01/16 00:53:01;;;;;;;21.17;14.30;;;;;;;3.50;55.72;100362.06;6306130;22;20049;-78
2022/01/16 00:55:27;;;;;;;17.63;13.10;;;;;;;3.77;55.88;100426.28;6306309;22;19995;-77
2022/01/16 00:57:52;;;;;;;20.60;15.07;;;;;;;3.57;55.71;100411.22;6307200;22;20063;-77
2022/01/16 01:00:18;;;;;;;19.00;13.70;;;;;;;3.72;55.55;100465.81;6306584;22;20453;-77
2022/01/16 01:02:44;;;;;;;18.17;13.87;;;;;;;3.34;55.85;100415.50;6306780;22;20018;-78
2022/01/16 01:05:10;;;;;;;20.30;14.03;;;;;;;3.35;55.84;100451.09;6306567;22;19999;-77
2022/01/16 01:07:38;;;;;;;18.70;14.00;;;;;;;3.13;55.75;100447.41;6306827;22;19996;-77
2022/01/16 01:10:04;;;;;;;21.97;14.80;;;;;;;3.66;55.88;100577.69;6279185;22;20396;-77
2022/01/16 01:12:41;;;;;;;20.07;14.53;;;;;;;3.40;55.92;100522.06;6306853;22;20497;-77
2022/01/16 01:15:09;;;;;;;18.33;13.30;;;;;;;3.48;55.59;100519.75;6306546;22;20026;-77
2022/01/16 01:17:44;;;;;;;19.03;14.57;;;;;;;3.12;55.87;100450.97;6306532;22;19995;-77
2022/01/16 01:20:11;;;;;;;20.87;14.40;;;;;;;3.44;55.95;100505.25;6306810;22;20048;-77
2022/01/16 01:22:37;;;;;;;20.43;15.13;;;;;;;3.05;56.01;100461.94;6306549;22;20004;-77
2022/01/16 01:25:03;;;;;;;23.80;15.90;;;;;;;3.08;56.12;100467.78;6279418;22;20409;-77
2022/01/16 01:27:31;;;;;;;21.83;15.47;;;;;;;3.57;56.34;100534.78;6306553;22;19995;-77
2022/01/16 01:30:05;;;;;;;24.30;15.87;;;;;;;3.58;55.92;100527.78;6306745;22;19999;-77
2022/01/16 01:32:32;;;;;;;22.50;15.00;;;;;;;3.23;56.44;100484.13;6279235;22;20003;-77
2022/01/16 01:34:57;;;;;;;23.20;15.97;;;;;;;3.50;55.90;100546.59;6306740;22;20019;-77
2022/01/16 01:37:23;;;;;;;19.33;15.10;;;;;;;3.25;56.37;100521.38;6279177;22;20439;-77
2022/01/16 01:39:48;;;;;;;22.70;15.73;;;;;;;3.47;55.94;100559.84;6306237;22;20003;-77
2022/01/16 01:42:14;;;;;;;22.37;14.40;;;;;;;2.96;55.93;100476.41;6278822;22;20079;-77
2022/01/16 01:52:55;;;;;;;22.10;14.90;;;;;;;3.45;55.96;100580.84;6306657;22;20518;-77
2022/01/16 01:55:21;;;;;;;22.73;15.53;;;;;;;3.35;56.25;100563.34;6306119;22;19995;-77
2022/01/16 01:57:46;;;;;;;21.30;14.67;;;;;;;3.42;55.79;100590.69;6306091;22;19995;-77
2022/01/16 02:00:19;;;;;;;20.00;14.50;;;;;;;2.98;55.84;100525.91;6306282;22;20049;-77
2022/01/16 02:05:35;;;;;;;18.93;14.13;;;;;;;3.40;56.43;100590.78;6284343;22;20000;-77
2022/01/16 02:08:03;;;;;;;21.47;15.00;;;;;;;3.38;56.29;100597.06;6306336;22;20079;-77
2022/01/16 02:10:29;;;;;;;22.17;14.63;;;;;;;3.11;56.69;100561.47;6306403;22;20078;-77
2022/01/16 02:13:01;;;;;;;21.57;15.77;;;;;;;2.82;56.62;100529.53;6306092;22;20116;-77
2022/01/16 02:29:39;;;;;;;19.47;14.30;;;;;;;3.24;56.71;100591.94;6318991;22;19994;-77
2022/01/16 02:32:24;;;;;;;23.33;16.33;;;;;;;3.21;56.60;100582.56;6336260;22;20009;-77
2022/01/16 02:34:46;;;;;;;18.20;13.60;;;;;;;3.15;56.60;100582.97;6332303;22;20018;-78
2022/01/16 02:37:14;;;;;;;19.30;13.53;;;;;;;3.03;56.81;100542.06;6305893;22;20399;-77
2022/01/16 02:39:49;;;;;;;19.73;13.87;;;;;;;3.01;56.96;100541.34;6278057;22;20000;-77
2022/01/16 02:42:16;;;;;;;18.90;14.23;;;;;;;3.15;56.67;100569.94;6278745;22;19999;-77
2022/01/16 02:44:47;;;;;;;19.57;15.10;;;;;;;3.15;56.39;100577.75;6305917;22;19999;-77
2022/01/16 02:47:17;;;;;;;17.77;14.00;;;;;;;3.01;56.98;100557.84;6278928;22;20007;-77
2022/01/16 02:49:45;;;;;;;20.23;14.27;;;;;;;3.14;56.61;100582.16;6305989;22;19996;-77
2022/01/16 02:52:18;;;;;;;21.07;14.77;;;;;;;2.84;56.71;100535.47;6305935;22;19995;-77
2022/01/16 02:54:46;;;;;;;19.47;13.23;;;;;;;2.59;56.68;100492.94;6278661;22;20463;-77
2022/01/16 02:57:15;;;;;;;18.07;14.17;;;;;;;3.11;56.54;100584.97;6278727;22;20006;-77
2022/01/16 02:59:54;;;;;;;20.50;14.73;;;;;;;2.46;56.73;100472.06;6305959;22;20395;-77
2022/01/16 03:02:22;;;;;;;18.13;13.60;;;;;;;2.74;56.77;100521.41;6305945;22;20353;-77
2022/01/16 03:04:47;;;;;;;18.13;14.30;;;;;;;3.10;56.49;100583.28;6278296;22;20441;-77
2022/01/16 03:07:15;;;;;;;21.07;13.97;;;;;;;3.10;56.91;100590.28;6305747;22;20028;-77
2022/01/16 03:12:26;;;;;;;18.40;14.30;;;;;;;2.81;57.09;100534.84;6305776;22;20029;-77
2022/01/16 03:14:51;;;;;;;19.90;14.13;;;;;;;2.27;56.94;100450.78;6305931;22;20448;-77
2022/01/16 03:17:29;;;;;;;16.53;12.27;;;;;;;2.92;57.41;100568.88;6305767;22;19995;-77
2022/01/16 03:22:38;;;;;;;18.83;13.87;;;;;;;2.39;57.35;100489.91;6306245;22;20148;-77
2022/01/16 03:25:04;;;;;;;20.77;14.10;;;;;;;2.95;57.05;100584.31;6306682;22;20429;-77
2022/01/16 03:27:29;;;;;;;18.50;14.30;;;;;;;2.54;57.41;100503.66;6306137;22;20000;-77
2022/01/16 03:29:57;;;;;;;21.10;14.37;;;;;;;2.45;57.55;100510.31;6305791;22;19996;-77
2022/01/16 03:32:23;;;;;;;20.43;14.17;;;;;;;2.66;57.46;100551.53;6305670;22;20003;-77
2022/01/16 03:34:49;;;;;;;17.33;13.50;;;;;;;2.74;57.34;100565.72;6305739;22;19991;-77
2022/01/16 03:37:14;;;;;;;17.47;13.47;;;;;;;2.46;57.49;100517.22;6306065;22;19995;-77
2022/01/16 03:39:40;;;;;;;20.90;13.93;;;;;;;2.95;57.36;100605.19;6306095;22;20022;-77
2022/01/16 03:42:07;;;;;;;18.53;13.93;;;;;;;2.79;57.06;100587.13;6305388;22;19999;-78
2022/01/16 03:44:33;;;;;;;19.20;13.03;;;;;;;2.88;57.24;100578.66;6305932;22;20499;-77
2022/01/16 03:46:58;;;;;;;20.23;14.60;;;;;;;2.96;57.08;100598.19;6305596;22;20067;-77
2022/01/16 03:49:27;;;;;;;20.70;14.93;;;;;;;2.95;57.20;100593.91;6306113;22;19999;-77
2022/01/16 03:51:54;;;;;;;20.10;14.43;;;;;;;2.93;57.26;100607.06;6305606;22;19991;-77
2022/01/16 03:54:23;;;;;;;23.90;16.57;;;;;;;2.37;57.50;100537.84;6305545;22;20066;-77
2022/01/16 03:56:50;;;;;;;24.77;15.90;;;;;;;2.55;57.85;100549.66;6278034;22;20459;-77
2022/01/16 03:59:16;;;;;;;30.23;17.83;;;;;;;2.88;57.19;100616.97;6305612;22;19995;-77
2022/01/16 04:01:42;;;;;;;24.10;16.30;;;;;;;2.79;57.10;100601.94;6305703;22;20060;-77
2022/01/16 04:04:08;;;;;;;24.97;16.80;;;;;;;2.37;57.73;100543.06;6305605;22;20031;-77
2022/01/16 04:06:34;;;;;;;25.10;16.83;;;;;;;2.85;57.58;100625.00;6306055;22;20019;-77
2022/01/16 04:09:02;;;;;;;24.93;17.53;;;;;;;2.31;57.44;100544.28;6278137;22;20006;-77
2022/01/16 04:11:29;;;;;;;27.27;18.43;;;;;;;2.23;57.72;100544.78;6305661;22;20489;-77
2022/01/16 04:14:03;;;;;;;29.03;19.87;;;;;;;2.20;57.52;100554.56;6305149;22;20002;-77
2022/01/16 04:16:29;;;;;;;25.67;18.73;;;;;;;2.59;57.98;100618.91;6305381;22;20006;-77
2022/01/16 04:18:54;;;;;;;26.77;18.93;;;;;;;2.38;58.22;100579.44;6306151;22;20000;-77
2022/01/16 04:21:23;;;;;;;28.87;20.43;;;;;;;2.71;57.96;100641.56;6305816;22;20352;-77
2022/01/16 04:23:49;;;;;;;29.87;20.80;;;;;;;2.42;58.07;100591.34;6305550;22;20052;-77
2022/01/16 04:26:16;;;;;;;28.80;20.57;;;;;;;2.63;57.80;100643.00;6278137;22;19999;-77
2022/01/16 04:28:42;;;;;;;32.73;23.60;;;;;;;2.49;58.21;100621.28;6306290;22;19999;-77
2022/01/16 04:31:08;;;;;;;37.83;24.57;;;;;;;2.66;57.67;100648.00;6307412;22;20494;-77
2022/01/16 04:33:33;;;;;;;40.30;25.40;;;;;;;2.43;58.18;100608.63;6307085;22;20006;-77
2022/01/16 04:35:59;;;;;;;36.60;26.30;;;;;;;2.63;58.26;100645.59;6279947;22;20003;-77
2022/01/16 04:38:24;;;;;;;33.80;21.80;;;;;;;2.49;58.12;100636.91;6279699;22;20072;-77
2022/01/16 04:43:49;;;;;;;36.60;24.03;;;;;;;2.34;58.18;100629.25;6307384;22;20422;-77
2022/01/16 04:46:16;;;;;;;33.60;22.27;;;;;;;2.29;58.69;100621.72;6307188;22;19995;-77
2022/01/16 04:48:42;;;;;;;39.77;24.87;;;;;;;2.24;58.65;100615.97;6306960;22;20022;-77
2022/01/16 04:51:08;;;;;;;37.00;24.07;;;;;;;2.00;58.68;100576.69;6307029;22;20348;-77
2022/01/16 04:53:34;;;;;;;38.17;25.10;;;;;;;2.28;58.57;100638.28;6306860;22;19995;-77
2022/01/16 04:56:00;;;;;;;37.77;26.87;;;;;;;1.77;59.12;100559.91;6307135;22;20070;-77
2022/01/16 04:58:26;;;;;;;39.03;25.67;;;;;;;1.79;59.04;100557.22;6307315;22;19995;-77
2022/01/16 05:00:51;;;;;;;37.63;25.20;;;;;;;2.34;59.06;100661.34;6307677;22;20357;-77
2022/01/16 05:03:17;;;;;;;39.83;26.97;;;;;;;1.72;59.01;100581.97;6307491;22;20003;-77
2022/01/16 05:05:42;;;;;;;37.87;26.80;;;;;;;2.31;59.45;100665.94;6307263;22;19998;-77
2022/01/16 05:08:08;;;;;;;40.33;25.80;;;;;;;2.34;59.14;100665.72;6307332;22;19999;-77
2022/01/16 05:10:33;;;;;;;35.33;26.67;;;;;;;1.50;59.25;100527.81;6307192;22;19994;-77
2022/01/16 05:13:25;;;;;;;40.37;27.30;;;;;;;1.69;59.13;100564.78;6307330;22;20037;-77
2022/01/16 05:18:40;;;;;;;32.53;20.10;;;;;;;1.82;59.13;100599.50;6280130;22;20326;-77
2022/01/16 05:21:06;;;;;;;32.93;21.87;;;;;;;2.17;59.62;100661.56;6279275;22;20018;-77
2022/01/16 05:23:32;;;;;;;34.80;23.77;;;;;;;2.15;59.64;100668.66;6306956;22;19999;-77
2022/01/16 05:25:59;;;;;;;27.67;19.60;;;;;;;1.68;59.71;100599.53;6306994;22;20002;-77
2022/01/16 05:28:25;;;;;;;27.80;20.90;;;;;;;2.00;59.46;100643.56;6306913;22;20030;-77
2022/01/16 05:30:50;;;;;;;27.33;20.23;;;;;;;2.17;59.22;100690.22;6307296;22;19995;-76
2022/01/16 05:33:15;;;;;;;30.70;22.83;;;;;;;2.11;59.41;100677.59;6307152;22;19991;-77
2022/01/16 05:35:42;;;;;;;33.20;22.77;;;;;;;2.08;59.50;100696.00;6306993;22;20395;-77
2022/01/16 05:38:09;;;;;;;31.53;22.03;;;;;;;2.03;59.66;100693.69;6306879;22;20006;-77
2022/01/16 05:40:35;;;;;;;30.97;21.07;;;;;;;1.64;59.94;100633.66;6307040;22;20004;-77
2022/01/16 05:43:01;;;;;;;30.87;20.63;;;;;;;1.64;59.69;100626.69;6307336;22;20004;-77
2022/01/16 05:45:27;;;;;;;30.17;20.47;;;;;;;2.00;59.91;100690.44;6279508;22;19999;-78
2022/01/16 05:47:53;;;;;;;31.77;21.37;;;;;;;1.76;59.87;100657.19;6279703;22;20074;-77
2022/01/16 05:50:18;;;;;;;29.00;21.63;;;;;;;1.96;59.83;100683.75;6306862;22;20052;-77
2022/01/16 05:52:44;;;;;;;32.07;19.50;;;;;;;1.84;59.89;100673.16;6306951;22;20010;-77
2022/01/16 05:55:10;;;;;;;32.23;20.43;;;;;;;1.29;60.05;100608.00;6306915;22;20002;-77
2022/01/16 05:57:35;;;;;;;32.23;20.87;;;;;;;1.43;59.65;100625.38;6307320;22;19995;-77
2022/01/16 06:00:02;;;;;;;30.57;20.70;;;;;;;1.45;59.79;100631.31;6307107;22;20003;-77
2022/01/16 06:02:28;;;;;;;34.33;21.93;;;;;;;1.89;59.99;100719.75;6279496;22;20009;-77
2022/01/16 06:04:53;;;;;;;31.50;21.30;;;;;;;1.44;59.84;100643.50;6278763;22;20407;-77
2022/01/16 06:07:19;;;;;;;33.83;21.57;;;;;;;1.58;59.97;100686.94;6306501;22;19999;-78
2022/01/16 06:09:44;;;;;;;36.53;22.73;;;;;;;1.83;59.96;100720.13;6279037;22;20441;-77
2022/01/16 06:12:11;;;;;;;36.33;23.90;;;;;;;1.26;60.03;100627.25;6306481;22;19999;-77
2022/01/16 06:14:37;;;;;;;31.07;20.90;;;;;;;1.81;59.89;100719.38;6306593;22;19999;-77
2022/01/16 06:17:02;;;;;;;36.17;22.33;;;;;;;1.26;59.92;100642.00;6279348;22;20026;-77
2022/01/16 06:19:28;;;;;;;39.90;26.33;;;;;;;1.35;60.21;100643.22;6307201;22;20065;-77
2022/01/16 06:21:54;;;;;;;46.37;30.10;;;;;;;1.69;59.71;100697.53;6306764;22;20403;-78
2022/01/16 06:24:19;;;;;;;43.63;28.73;;;;;;;1.67;60.07;100704.59;6306237;22;20022;-78
2022/01/16 06:26:45;;;;;;;46.13;26.77;;;;;;;1.88;60.18;100739.75;6306573;22;20522;-77
2022/01/16 06:29:10;;;;;;;45.27;27.67;;;;;;;1.76;59.91;100727.47;6306401;22;19987;-77
2022/01/16 06:31:37;;;;;;;46.90;30.10;;;;;;;1.89;60.08;100746.63;6306272;22;19991;-77
2022/01/16 06:34:05;;;;;;;51.03;31.30;;;;;;;1.49;60.12;100680.53;6306849;22;20005;-78
2022/01/16 06:36:30;;;;;;;46.07;28.10;;;;;;;1.63;60.10;100717.91;6306816;22;19999;-77
2022/01/16 06:38:56;;;;;;;43.17;27.90;;;;;;;1.98;59.77;100767.84;6307174;22;20466;-77
2022/01/16 06:41:22;;;;;;;39.77;28.20;;;;;;;1.99;59.95;100769.50;6306842;22;20376;-77
2022/01/16 06:43:47;;;;;;;46.17;31.93;;;;;;;1.86;60.09;100772.84;6306713;22;19995;-77
2022/01/16 06:46:13;;;;;;;51.27;30.63;;;;;;;1.28;60.15;100664.41;6306870;22;19999;-77
2022/01/16 06:48:40;;;;;;;48.57;32.03;;;;;;;1.90;60.00;100752.69;6306513;22;19995;-77
2022/01/16 06:51:06;;;;;;;52.60;31.83;;;;;;;2.04;60.13;100775.28;6306116;22;20048;-77
2022/01/16 06:53:32;;;;;;;45.27;30.97;;;;;;;1.99;59.97;100754.72;6305988;22;19991;-77
2022/01/16 06:55:57;;;;;;;48.87;30.73;;;;;;;1.63;60.06;100692.69;6305872;22;20348;-77
2022/01/16 06:58:23;;;;;;;44.67;30.17;;;;;;;1.63;59.77;100689.25;6305654;22;20006;-78
2022/01/16 07:00:48;;;;;;;59.83;35.30;;;;;;;2.13;60.09;100769.50;6305829;22;19999;-77
2022/01/16 07:03:14;;;;;;;59.40;39.67;;;;;;;2.00;60.18;100745.97;6305645;22;20007;-77
2022/01/16 07:05:41;;;;;;;58.40;38.83;;;;;;;2.22;59.79;100785.41;6305883;22;20379;-77
2022/01/16 07:08:07;;;;;;;64.97;41.50;;;;;;;2.27;60.07;100806.00;6305897;22;20074;-77
2022/01/16 07:10:32;;;;;;;79.83;53.57;;;;;;;2.30;59.78;100800.59;6278372;22;20441;-77
2022/01/16 07:12:58;;;;;;;80.47;54.70;;;;;;;2.03;59.38;100758.81;6305837;22;19995;-77
2022/01/16 07:15:23;;;;;;;80.20;53.03;;;;;;;2.19;59.25;100775.16;6305808;22;19999;-77
2022/01/16 07:17:49;;;;;;;85.00;55.47;;;;;;;2.38;59.57;100800.97;6305678;22;19995;-78
2022/01/16 07:20:15;;;;;;;73.93;48.63;;;;;;;2.03;59.21;100737.13;6278631;22;20006;-77
2022/01/16 07:22:41;;;;;;;69.10;49.33;;;;;;;2.48;59.32;100811.66;6306096;22;20003;-77
2022/01/16 07:25:07;;;;;;;75.33;50.03;;;;;;;2.13;59.49;100744.28;6306571;22;20348;-77
2022/01/16 07:27:33;;;;;;;73.00;50.10;;;;;;;2.13;59.23;100751.28;6280057;22;20090;-77
2022/01/16 07:29:58;;;;;;;74.90;51.63;;;;;;;2.59;59.41;100808.38;6278628;22;20005;-77
2022/01/16 07:32:24;;;;;;;67.73;46.27;;;;;;;2.64;59.44;100808.94;6278170;22;20078;-77
2022/01/16 07:34:49;;;;;;;60.40;43.40;;;;;;;2.67;59.10;100811.34;6305892;22;20454;-77
2022/01/16 07:37:15;;;;;;;62.83;42.57;;;;;;;2.61;59.04;100801.28;6305930;22;19995;-77
2022/01/16 07:39:41;;;;;;;53.87;36.83;;;;;;;2.29;59.09;100743.38;6305632;22;19995;-77
2022/01/16 07:42:07;;;;;;;54.67;34.87;;;;;;;2.44;58.94;100748.44;6305619;22;20437;-77
2022/01/16 07:44:32;;;;;;;50.43;31.70;;;;;;;2.87;58.70;100816.13;6305588;22;19995;-77
2022/01/16 07:46:58;;;;;;;48.27;30.83;;;;;;;2.68;58.46;100792.16;6305488;22;19999;-77
2022/01/16 07:49:23;;;;;;;43.50;30.60;;;;;;;2.41;58.76;100745.19;6305647;22;19995;-77
2022/01/16 07:51:48;;;;;;;48.07;31.93;;;;;;;2.40;58.56;100744.38;6305742;22;20445;-77
2022/01/16 07:54:14;;;;;;;45.80;32.20;;;;;;;2.43;58.94;100752.00;6305405;22;19995;-77
2022/01/16 07:56:39;;;;;;;49.40;33.77;;;;;;;2.54;58.87;100754.75;6305667;22;19999;-77
2022/01/16 07:59:05;;;;;;;54.90;36.67;;;;;;;2.84;58.56;100814.56;6305454;22;20380;-77
2022/01/16 08:01:30;;;;;;;49.70;33.43;;;;;;;2.79;58.36;100800.97;6305332;22;20010;-77
2022/01/16 08:03:55;;;;;;;43.93;32.00;;;;;;;3.13;58.04;100848.41;6306649;22;20068;-77
2022/01/16 08:06:21;;;;;;;42.83;31.53;;;;;;;2.75;58.35;100762.97;6280129;22;20503;-77
2022/01/16 08:08:46;;;;;;;45.97;31.17;;;;;;;3.24;58.54;100832.88;6328988;22;20031;-77
2022/01/16 08:11:12;;;;;;;41.00;29.67;;;;;;;3.19;58.00;100814.91;6338277;22;19988;-77
2022/01/16 08:13:39;;;;;;;40.50;28.30;;;;;;;2.92;57.76;100782.75;6327823;22;19995;-77
2022/01/16 08:16:07;;;;;;;34.27;26.47;;;;;;;3.31;58.00;100809.84;6307839;22;20026;-77
2022/01/16 08:18:33;;;;;;;34.93;24.57;;;;;;;3.17;57.34;100775.03;6279929;22;20066;-77
2022/01/16 08:20:59;;;;;;;31.50;22.10;;;;;;;2.98;57.25;100727.63;6307216;22;20030;-77
2022/01/16 08:23:24;;;;;;;34.00;22.57;;;;;;;3.26;57.18;100751.88;6307485;22;20006;-77
2022/01/16 08:25:51;;;;;;;23.80;17.77;;;;;;;3.53;56.76;100801.41;6279994;22;20356;-77
2022/01/16 08:28:17;;;;;;;26.63;17.20;;;;;;;3.52;56.86;100790.13;6307245;22;20005;-77
2022/01/16 08:30:42;;;;;;;26.03;18.70;;;;;;;3.31;56.92;100763.69;6307227;22;20329;-77
2022/01/16 08:33:08;;;;;;;23.17;16.87;;;;;;;3.09;56.51;100700.81;6279856;22;20045;-77
2022/01/16 08:35:34;;;;;;;22.40;15.33;;;;;;;3.71;56.36;100795.78;6306911;22;19995;-77
2022/01/16 08:37:59;;;;;;;23.27;15.50;;;;;;;3.30;56.63;100709.81;6307159;22;20009;-77
2022/01/16 08:40:24;;;;;;;19.97;14.70;;;;;;;3.88;56.69;100799.06;6307143;22;20026;-77
2022/01/16 08:42:50;;;;;;;24.93;15.53;;;;;;;3.66;56.64;100757.88;6307038;22;19999;-77
2022/01/16 08:45:16;;;;;;;19.50;15.30;;;;;;;3.95;56.17;100801.16;6307162;22;19995;-77
2022/01/16 08:47:42;;;;;;;21.90;14.77;;;;;;;3.70;55.90;100768.00;6306824;22;19999;-77
2022/01/16 08:50:09;;;;;;;21.10;14.47;;;;;;;3.61;55.84;100726.00;6279589;22;20003;-77
2022/01/16 08:52:34;;;;;;;19.50;13.47;;;;;;;4.03;56.10;100779.72;6306673;22;19991;-77
2022/01/16 08:55:01;;;;;;;20.97;15.40;;;;;;;4.15;56.13;100812.84;6306655;22;19999;-77
2022/01/16 08:57:27;;;;;;;20.83;15.10;;;;;;;3.69;55.69;100721.94;6306611;22;19999;-77
2022/01/16 08:59:52;;;;;;;22.73;15.30;;;;;;;4.04;55.65;100777.00;6306777;22;19999;-77
2022/01/16 09:02:18;;;;;;;18.90;13.70;;;;;;;3.83;55.34;100737.53;6307065;22;20046;-77
2022/01/16 09:04:43;;;;;;;23.07;16.13;;;;;;;4.27;55.25;100798.09;6279173;22;20010;-77
2022/01/16 09:07:09;;;;;;;18.57;15.33;;;;;;;4.29;55.19;100804.06;6306861;22;20353;-77
2022/01/16 09:09:34;;;;;;;19.83;15.20;;;;;;;3.88;54.89;100726.75;6306695;22;20027;-77
2022/01/16 09:12:00;;;;;;;19.13;14.13;;;;;;;4.35;54.85;100790.56;6306322;22;19998;-77
2022/01/16 09:14:25;;;;;;;18.87;13.97;;;;;;;3.85;54.72;100703.47;6306238;22;20019;-77
2022/01/16 09:16:51;;;;;;;19.13;14.67;;;;;;;4.32;55.04;100762.00;6306495;22;20349;-77
2022/01/16 09:19:16;;;;;;;20.27;15.20;;;;;;;3.47;54.46;100617.28;6306554;22;19999;-77
2022/01/16 09:21:42;;;;;;;22.70;16.70;;;;;;;4.41;54.64;100775.28;6306730;22;20060;-77
2022/01/16 09:24:07;;;;;;;29.07;20.13;;;;;;;3.91;54.25;100674.28;6307068;22;19999;-77
2022/01/16 09:26:33;;;;;;;18.93;14.07;;;;;;;4.63;54.18;100776.38;6306293;22;19999;-77
2022/01/16 09:28:58;;;;;;;17.93;12.77;;;;;;;4.12;53.48;100685.00;6306567;22;20445;-77
2022/01/16 09:31:24;;;;;;;14.60;11.60;;;;;;;4.74;53.53;100771.22;6306669;22;19999;-77
2022/01/16 09:33:49;;;;;;;12.10;9.43;;;;;;;4.79;53.12;100759.47;6306371;22;20415;-77
2022/01/16 09:36:15;;;;;;;14.57;8.83;;;;;;;4.28;52.98;100659.44;6306601;22;19995;-77
2022/01/16 09:38:41;;;;;;;14.07;11.57;;;;;;;4.86;52.22;100738.94;6306357;22;20003;-77
2022/01/16 09:41:07;;;;;;;16.93;11.77;;;;;;;4.68;52.00;100704.47;6306412;22;20070;-77
2022/01/16 09:43:34;;;;;;;14.97;11.57;;;;;;;5.07;51.71;100760.06;6306246;22;20023;-77
2022/01/16 09:46:00;;;;;;;13.37;9.87;;;;;;;5.17;51.56;100749.75;6279475;22;20007;-77
2022/01/16 09:48:26;;;;;;;10.27;8.57;;;;;;;4.95;50.66;100704.22;6278857;22;20418;-77
2022/01/16 09:50:51;;;;;;;12.53;8.07;;;;;;;4.87;50.50;100687.44;6306399;22;20034;-77
2022/01/16 09:53:17;;;;;;;10.97;7.43;;;;;;;5.13;50.41;100720.34;6306059;22;20018;-77
2022/01/16 09:55:43;;;;;;;13.20;9.57;;;;;;;5.27;49.87;100707.09;6304559;22;20015;-77
2022/01/16 09:58:08;;;;;;;13.20;10.33;;;;;;;5.46;49.38;100739.75;6306229;22;20003;-77
2022/01/16 10:00:34;;;;;;;14.07;9.83;;;;;;;5.47;49.00;100737.00;6305710;22;19995;-77
2022/01/16 10:03:00;;;;;;;14.00;10.40;;;;;;;5.12;48.77;100676.78;6305590;22;20506;-77
2022/01/16 10:05:35;;;;;;;12.50;8.40;;;;;;;5.51;49.04;100735.81;6305817;22;20486;-77
2022/01/16 10:08:05;;;;;;;10.03;8.20;;;;;;;5.00;48.93;100635.84;6305728;22;20074;-77
2022/01/16 10:10:33;;;;;;;15.30;10.67;;;;;;;5.30;48.28;100666.75;6305644;22;20433;-77
2022/01/16 10:13:07;;;;;;;14.87;10.00;;;;;;;5.66;48.22;100710.25;6305551;22;20070;-77
2022/01/16 10:15:34;;;;;;;17.53;10.47;;;;;;;5.78;48.13;100722.41;6305714;22;19999;-77
2022/01/16 10:18:03;;;;;;;15.30;9.17;;;;;;;5.72;48.33;100702.75;6305555;22;20125;-77
2022/01/16 10:20:40;;;;;;;16.00;10.23;;;;;;;5.43;47.88;100646.53;6305762;22;19995;-77
2022/01/16 10:23:16;;;;;;;14.27;8.97;;;;;;;5.97;48.32;100703.53;6305775;22;20136;-77
2022/01/16 10:25:49;;;;;;;16.33;9.77;;;;;;;6.00;48.25;100705.91;6305620;22;20000;-77
2022/01/16 10:28:21;;;;;;;16.73;9.13;;;;;;;6.07;47.55;100707.09;6278463;22;20489;-77
2022/01/16 10:30:49;;;;;;;14.60;11.00;;;;;;;5.75;47.72;100651.88;6305758;22;20064;-77
2022/01/16 10:33:19;;;;;;;16.43;12.63;;;;;;;6.12;48.34;100694.44;6305770;22;19995;-77
2022/01/16 10:35:47;;;;;;;12.13;8.80;;;;;;;6.18;47.70;100693.97;6305763;22;20061;-77
2022/01/16 10:38:21;;;;;;;13.07;8.20;;;;;;;5.94;47.64;100674.88;6305632;22;20003;-78
2022/01/16 10:40:50;;;;;;;15.60;9.80;;;;;;;6.13;47.23;100692.66;6305483;22;20026;-77
2022/01/16 10:43:40;;;;;;;14.50;10.50;;;;;;;6.26;47.53;100691.56;6305682;22;20026;-78
2022/01/16 10:46:06;;;;;;;15.73;11.27;;;;;;;6.22;47.29;100699.78;6284501;22;20022;-77
2022/01/16 10:48:32;;;;;;;17.33;10.07;;;;;;;6.18;47.44;100686.09;6305542;22;19995;-78
2022/01/16 10:51:00;;;;;;;20.50;12.10;;;;;;;6.00;47.21;100653.47;6305513;22;20384;-78
2022/01/16 10:53:28;;;;;;;15.03;10.43;;;;;;;6.17;47.56;100681.81;6305369;22;19991;-78
2022/01/16 10:56:04;;;;;;;13.77;8.93;;;;;;;6.16;47.53;100672.28;6305275;22;20052;-77
2022/01/16 10:58:37;;;;;;;14.93;10.43;;;;;;;5.66;47.17;100597.59;6305697;22;20073;-79
2022/01/16 11:01:09;;;;;;;14.37;10.07;;;;;;;6.06;47.44;100668.72;6278605;22;19994;-77
2022/01/16 11:03:45;;;;;;;15.77;10.27;;;;;;;5.96;47.48;100638.94;6305953;22;20006;-77
2022/01/16 11:06:11;;;;;;;16.70;9.37;;;;;;;5.72;47.29;100595.31;6305442;22;20456;-77
2022/01/16 11:08:36;;;;;;;12.47;8.03;;;;;;;5.81;47.21;100613.88;6305212;22;19995;-77
2022/01/16 11:11:03;;;;;;;10.53;8.37;;;;;;;6.15;47.30;100670.59;6277653;22;20504;-77
2022/01/16 11:13:32;;;;;;;14.67;7.67;;;;;;;6.05;47.22;100652.16;6305578;22;20001;-78
2022/01/16 11:16:07;;;;;;;17.67;10.67;;;;;;;6.13;46.97;100662.03;6278018;22;20070;-77
2022/01/16 11:18:38;;;;;;;14.10;9.37;;;;;;;5.69;46.60;100597.34;6305486;22;19995;-78
2022/01/16 11:26:34;;;;;;;10.87;7.40;;;;;;;5.84;46.80;100624.13;6237392;22;19999;-77
2022/01/16 11:28:59;;;;;;;10.90;8.00;;;;;;;5.86;46.36;100625.66;6278213;22;20007;-76
2022/01/16 11:31:25;;;;;;;13.23;9.00;;;;;;;6.03;46.49;100656.69;6305458;22;20070;-78
2022/01/16 11:33:50;;;;;;;14.03;9.43;;;;;;;5.70;46.42;100591.97;6305274;22;20017;-78
2022/01/16 11:36:19;;;;;;;15.47;10.60;;;;;;;5.63;46.80;100576.88;6278041;22;20431;-79
2022/01/16 11:39:09;;;;;;;11.93;7.70;;;;;;;6.01;46.14;100634.16;6306836;22;20053;-78
2022/01/16 11:41:46;;;;;;;10.93;6.90;;;;;;;6.05;46.43;100641.66;6306030;22;20003;-78
2022/01/16 11:44:23;;;;;;;10.77;7.00;;;;;;;6.02;45.99;100641.06;6307257;22;20013;-78
2022/01/16 11:46:55;;;;;;;9.47;6.50;;;;;;;5.78;46.17;100596.63;6279724;22;20318;-77
2022/01/16 11:49:42;;;;;;;11.07;7.38;;;;;;;6.01;46.41;100634.16;6307156;22;20002;-78
2022/01/16 11:52:08;;;;;;;10.40;7.40;;;;;;;6.08;45.97;100629.25;6307175;22;19991;-77
2022/01/16 11:54:38;;;;;;;12.03;8.40;;;;;;;6.04;45.85;100629.50;6306921;22;19999;-77
2022/01/16 11:57:05;;;;;;;13.87;10.90;;;;;;;5.35;46.00;100507.50;6307180;22;20454;-77
2022/01/16 11:59:30;;;;;;;11.77;7.97;;;;;;;6.10;46.27;100622.09;6307014;22;19995;-78
2022/01/16 12:02:08;;;;;;;11.57;7.13;;;;;;;6.07;44.20;100617.94;6307254;22;19999;-77